Time;durP1;ratioP1;P1;durP2;ratioP2;P2;SDS_P1;SDS_P2;PMS_P1;PMS_P2;Temp;Humidity;BMP_temperature;BMP_pressure;BME280_temperature;BME280_humidity;BME280_pressure;Samples;Min_cycle;Max_cycle;Signal;HPM_P1;HPM_P2
2022/05/23 00:02:23;;;;;;;5.85;3.78;;;;;;;;;;4836288;29;20062;-72
2022/05/23 00:04:53;;;;;;;5.32;3.58;;;;;;;;;;4835622;29;20046;-71
2022/05/23 00:07:45;;;;;;;3.92;2.78;;;;;;;;;;4835472;29;20050;-71
2022/05/23 00:10:18;;;;;;;3.95;2.92;;;;;;;;;;4835378;29;20392;-71
2022/05/23 00:12:49;;;;;;;4.18;2.63;;;;;;;;;;4836186;29;20739;-72
2022/05/23 00:15:19;;;;;;;5.50;2.55;;;;;;;;;;4836380;29;20054;-71
2022/05/23 00:17:49;;;;;;;3.33;2.58;;;;;;;;;;4836522;29;20506;-71
2022/05/23 00:20:22;;;;;;;4.45;2.40;;;;;;;;;;4835824;29;20058;-72
2022/05/23 00:22:52;;;;;;;6.03;2.80;;;;;;;;;;4835184;29;20061;-72
2022/05/23 00:25:23;;;;;;;6.32;2.72;;;;;;;;;;4835635;29;20057;-72
2022/05/23 00:27:53;;;;;;;5.53;3.25;;;;;;;;;;4835773;29;20406;-72
2022/05/23 00:30:25;;;;;;;3.88;3.10;;;;;;;;;;4818674;29;20436;-71
2022/05/23 00:35:54;;;;;;;5.10;3.35;;;;;;;;;;4835612;29;20060;-72
2022/05/23 00:38:24;;;;;;;5.78;3.83;;;;;;;;;;4835098;29;20414;-72
2022/05/23 00:43:59;;;;;;;3.05;2.72;;;;;;;;;;4835592;29;20046;-71
2022/05/23 00:46:29;;;;;;;7.13;2.97;;;;;;;;;;4834659;29;20076;-73
2022/05/23 00:49:03;;;;;;;4.20;2.88;;;;;;;;;;4817953;29;20062;-75
2022/05/23 00:51:35;;;;;;;10.65;3.20;;;;;;;;;;4834683;29;20082;-72
2022/05/23 00:54:07;;;;;;;4.97;3.13;;;;;;;;;;4816309;29;20050;-72
2022/05/23 00:56:45;;;;;;;6.80;3.00;;;;;;;;;;4833303;29;20553;-72
2022/05/23 00:59:19;;;;;;;4.95;3.33;;;;;;;;;;4833532;29;20141;-72
2022/05/23 01:01:50;;;;;;;13.35;3.70;;;;;;;;;;4834459;29;20053;-72
2022/05/23 01:04:34;;;;;;;3.25;2.80;;;;;;;;;;4818570;29;20058;-72
2022/05/23 01:07:06;;;;;;;3.67;2.70;;;;;;;;;;4837906;29;20569;-73
2022/05/23 01:09:36;;;;;;;;;;;;;;;;;;4838575;29;20050;-71
2022/05/23 01:12:07;;;;;;;4.38;3.28;;;;;;;;;;4839528;29;19928;-71
2022/05/23 01:14:48;;;;;;;7.03;3.75;;;;;;;;;;4837037;29;20062;-71
2022/05/23 01:17:20;;;;;;;10.23;7.50;;;;;;;;;;4821625;29;20057;-72
2022/05/23 01:19:51;;;;;;;23.88;13.57;;;;;;;;;;4822278;29;20422;-72
2022/05/23 01:22:27;;;;;;;10.15;4.70;;;;;;;;;;4822745;29;20057;-71
2022/05/23 01:25:16;;;;;;;5.75;4.75;;;;;;;;;;4822609;29;20536;-71
2022/05/23 01:27:50;;;;;;;12.50;5.93;;;;;;;;;;4822190;29;20054;-72
2022/05/23 01:30:21;;;;;;;7.97;6.35;;;;;;;;;;4821918;29;20057;-72
2022/05/23 01:33:09;;;;;;;11.23;6.78;;;;;;;;;;4821675;29;20069;-71
2022/05/23 01:35:41;;;;;;;14.45;6.97;;;;;;;;;;4837739;29;20057;-71
2022/05/23 01:38:13;;;;;;;13.43;6.65;;;;;;;;;;4821909;29;20057;-72
2022/05/23 01:40:49;;;;;;;9.63;6.55;;;;;;;;;;4821856;29;20058;-73
2022/05/23 01:43:25;;;;;;;7.28;5.97;;;;;;;;;;4822054;29;20054;-72
2022/05/23 01:46:13;;;;;;;10.07;6.32;;;;;;;;;;4839623;29;20058;-73
2022/05/23 01:49:13;;;;;;;10.25;6.72;;;;;;;;;;4772224;29;20075;-72
2022/05/23 01:51:43;;;;;;;8.00;6.00;;;;;;;;;;4820967;29;20085;-72
2022/05/23 01:54:15;;;;;;;9.43;5.60;;;;;;;;;;4821009;29;20066;-73
2022/05/23 01:56:48;;;;;;;7.40;5.05;;;;;;;;;;4821132;29;20144;-72
2022/05/23 02:02:17;;;;;;;7.90;5.20;;;;;;;;;;4818114;29;20065;-73
2022/05/23 02:04:48;;;;;;;7.45;5.13;;;;;;;;;;4817636;29;20487;-72
2022/05/23 02:07:19;;;;;;;7.40;4.80;;;;;;;;;;4819020;29;20455;-73
2022/05/23 02:09:50;;;;;;;7.40;4.72;;;;;;;;;;4819175;29;20522;-72
2022/05/23 02:12:24;;;;;;;10.80;5.60;;;;;;;;;;4818379;29;20054;-72
2022/05/23 02:14:56;;;;;;;9.00;6.20;;;;;;;;;;4817860;29;20066;-72
2022/05/23 02:17:44;;;;;;;7.65;5.65;;;;;;;;;;4817616;29;20548;-73
2022/05/23 02:20:16;;;;;;;6.97;4.55;;;;;;;;;;4818069;29;20065;-73
2022/05/23 02:22:46;;;;;;;6.77;4.70;;;;;;;;;;4817544;29;20054;-73
2022/05/23 02:25:20;;;;;;;8.73;4.82;;;;;;;;;;4817980;29;20062;-73
2022/05/23 02:27:51;;;;;;;7.63;4.77;;;;;;;;;;4818387;29;20069;-73
2022/05/23 02:30:21;;;;;;;11.80;6.38;;;;;;;;;;4817765;29;20055;-72
2022/05/23 02:32:55;;;;;;;10.82;7.65;;;;;;;;;;4818960;29;20066;-73
2022/05/23 02:35:26;;;;;;;9.65;7.55;;;;;;;;;;4819774;29;20047;-72
2022/05/23 02:37:57;;;;;;;8.20;7.00;;;;;;;;;;4818004;29;20511;-73
2022/05/23 02:40:27;;;;;;;14.13;6.00;;;;;;;;;;4817875;29;20058;-72
2022/05/23 02:42:57;;;;;;;10.00;5.97;;;;;;;;;;4817879;29;20062;-72
2022/05/23 02:45:29;;;;;;;8.40;5.22;;;;;;;;;;4817121;29;20062;-71
2022/05/23 02:47:59;;;;;;;8.80;4.50;;;;;;;;;;4817644;29;20092;-73
2022/05/23 02:50:30;;;;;;;9.25;5.05;;;;;;;;;;4817323;29;20066;-72
2022/05/23 02:53:00;;;;;;;8.35;5.22;;;;;;;;;;4817316;29;20059;-72
2022/05/23 02:55:38;;;;;;;6.68;4.72;;;;;;;;;;4817314;29;20057;-73
2022/05/23 02:58:08;;;;;;;9.37;4.70;;;;;;;;;;4816661;29;20516;-73
2022/05/23 03:00:39;;;;;;;12.88;5.07;;;;;;;;;;4818462;29;20431;-72
2022/05/23 03:03:10;;;;;;;7.68;4.50;;;;;;;;;;4816377;29;20537;-73
2022/05/23 03:05:51;;;;;;;8.15;4.45;;;;;;;;;;4817214;29;20062;-72
2022/05/23 03:08:25;;;;;;;6.47;4.30;;;;;;;;;;4816461;29;20062;-73
2022/05/23 03:10:59;;;;;;;10.68;4.50;;;;;;;;;;4817501;29;20069;-72
2022/05/23 03:13:31;;;;;;;4.90;4.40;;;;;;;;;;4816532;29;20058;-71
2022/05/23 03:16:02;;;;;;;8.10;4.38;;;;;;;;;;4818418;29;20503;-73
2022/05/23 03:18:33;;;;;;;4.82;3.22;;;;;;;;;;4817552;29;20425;-72
2022/05/23 03:21:11;;;;;;;6.93;3.90;;;;;;;;;;4817618;29;20058;-73
2022/05/23 03:29:18;;;;;;;6.15;4.70;;;;;;;;;;4815622;29;20065;-73
2022/05/23 03:31:50;;;;;;;5.68;4.07;;;;;;;;;;4816673;29;20427;-72
2022/05/23 03:34:20;;;;;;;7.40;4.72;;;;;;;;;;4816001;29;20065;-72
2022/05/23 03:36:51;;;;;;;6.53;4.30;;;;;;;;;;4817263;29;20419;-73
2022/05/23 03:39:21;;;;;;;4.95;4.45;;;;;;;;;;4816863;29;20058;-73
2022/05/23 03:41:55;;;;;;;6.55;4.35;;;;;;;;;;4817764;29;20066;-73
2022/05/23 03:44:25;;;;;;;8.07;4.70;;;;;;;;;;4818392;29;20058;-73
2022/05/23 03:46:55;;;;;;;9.85;5.15;;;;;;;;;;4816185;29;20061;-72
2022/05/23 03:49:26;;;;;;;9.13;6.00;;;;;;;;;;4816772;29;20058;-72
2022/05/23 03:51:56;;;;;;;7.72;5.40;;;;;;;;;;4816584;29;20062;-72
2022/05/23 03:54:27;;;;;;;9.38;5.25;;;;;;;;;;4817502;29;20062;-72
2022/05/23 03:57:01;;;;;;;8.18;5.03;;;;;;;;;;4818547;29;20058;-72
2022/05/23 03:59:32;;;;;;;11.85;5.28;;;;;;;;;;4816648;29;20065;-72
2022/05/23 04:02:02;;;;;;;;;;;;;;;;;;4817440;29;20054;-72
2022/05/23 04:04:35;;;;;;;6.28;5.18;;;;;;;;;;4816910;29;20041;-72
2022/05/23 04:07:41;;;;;;;8.75;4.63;;;;;;;;;;4786999;29;20066;-72
2022/05/23 04:10:28;;;;;;;7.13;4.53;;;;;;;;;;4816933;29;20058;-72
2022/05/23 04:13:02;;;;;;;8.43;4.85;;;;;;;;;;4816309;29;20069;-72
2022/05/23 04:15:33;;;;;;;11.27;5.55;;;;;;;;;;4816760;29;20058;-71
2022/05/23 04:18:03;;;;;;;13.15;5.15;;;;;;;;;;4817466;29;20546;-72
2022/05/23 04:20:34;;;;;;;6.68;5.43;;;;;;;;;;4816591;29;20392;-72
2022/05/23 04:23:09;;;;;;;5.65;4.03;;;;;;;;;;4815491;29;20050;-72
2022/05/23 04:25:45;;;;;;;7.75;4.75;;;;;;;;;;4816434;29;20435;-72
2022/05/23 04:28:18;;;;;;;7.28;4.60;;;;;;;;;;4816577;29;20089;-72
2022/05/23 04:30:48;;;;;;;7.35;4.93;;;;;;;;;;4816702;29;20065;-72
2022/05/23 04:36:12;;;;;;;10.70;5.65;;;;;;;;;;4815910;29;20058;-72
2022/05/23 04:38:47;;;;;;;7.07;5.57;;;;;;;;;;4815463;29;20431;-72
2022/05/23 04:41:19;;;;;;;6.25;5.55;;;;;;;;;;4816149;29;20058;-71
2022/05/23 04:43:53;;;;;;;11.63;5.53;;;;;;;;;;4815750;29;20054;-72
2022/05/23 04:46:27;;;;;;;8.38;5.72;;;;;;;;;;4815893;29;20520;-72
2022/05/23 04:52:15;;;;;;;7.75;5.80;;;;;;;;;;4816243;29;20062;-72
2022/05/23 04:54:47;;;;;;;8.23;5.25;;;;;;;;;;4817648;29;20042;-73
2022/05/23 04:57:18;;;;;;;6.18;5.03;;;;;;;;;;4815588;29;20074;-72
2022/05/23 04:59:48;;;;;;;9.32;5.22;;;;;;;;;;4833243;29;20054;-72
2022/05/23 05:02:24;;;;;;;8.50;5.60;;;;;;;;;;4833513;29;20065;-73
2022/05/23 05:04:58;;;;;;;9.23;7.28;;;;;;;;;;4819027;29;20069;-72
2022/05/23 05:07:29;;;;;;;9.77;6.07;;;;;;;;;;4835266;29;20050;-73
2022/05/23 05:10:01;;;;;;;9.30;6.80;;;;;;;;;;4818841;29;20076;-72
2022/05/23 05:12:32;;;;;;;9.82;6.35;;;;;;;;;;4817776;29;20084;-72
2022/05/23 05:15:02;;;;;;;5.53;4.53;;;;;;;;;;4803061;29;20061;-72
2022/05/23 05:17:32;;;;;;;7.38;4.93;;;;;;;;;;4818742;29;20054;-72
2022/05/23 05:20:04;;;;;;;7.50;5.80;;;;;;;;;;4817950;29;20065;-72
2022/05/23 05:23:06;;;;;;;6.72;5.28;;;;;;;;;;4814030;29;20106;-72
2022/05/23 05:25:43;;;;;;;8.55;5.95;;;;;;;;;;4835378;29;20061;-72
2022/05/23 05:28:19;;;;;;;11.43;5.95;;;;;;;;;;4803619;29;20080;-72
2022/05/23 05:31:32;;;;;;;7.38;5.25;;;;;;;;;;4817093;29;20057;-72
2022/05/23 05:34:16;;;;;;;6.97;5.43;;;;;;;;;;4827095;29;20066;-72
2022/05/23 05:36:52;;;;;;;31.95;5.72;;;;;;;;;;4818128;29;20062;-72
2022/05/23 05:39:26;;;;;;;12.55;6.18;;;;;;;;;;4835261;29;20046;-72
2022/05/23 05:42:12;;;;;;;8.40;5.57;;;;;;;;;;4835266;29;20050;-72
2022/05/23 05:44:52;;;;;;;8.70;6.07;;;;;;;;;;4817743;29;20061;-72
2022/05/23 05:47:22;;;;;;;11.27;6.53;;;;;;;;;;4817958;29;20062;-73
2022/05/23 05:50:08;;;;;;;70.55;7.60;;;;;;;;;;4817967;29;20058;-73
2022/05/23 05:52:57;;;;;;;28.55;6.38;;;;;;;;;;4820858;29;20050;-72
2022/05/23 05:55:29;;;;;;;50.08;7.95;;;;;;;;;;4821155;29;20086;-72
2022/05/23 05:58:01;;;;;;;49.63;8.10;;;;;;;;;;4821260;29;20088;-72
2022/05/23 06:00:34;;;;;;;19.42;6.57;;;;;;;;;;4821187;29;20065;-73
2022/05/23 06:03:04;;;;;;;43.50;6.65;;;;;;;;;;4821620;29;21377;-73
2022/05/23 06:11:29;;;;;;;5.80;5.28;;;;;;;;;;4821288;29;20069;-72
2022/05/23 06:14:19;;;;;;;5.35;4.85;;;;;;;;;;4820775;29;20053;-72
2022/05/23 06:16:50;;;;;;;6.13;5.15;;;;;;;;;;4820057;29;20074;-72
2022/05/23 06:19:25;;;;;;;7.13;5.10;;;;;;;;;;4821067;29;20050;-72
2022/05/23 06:22:05;;;;;;;6.18;5.13;;;;;;;;;;4821423;29;20064;-73
2022/05/23 06:24:41;;;;;;;5.55;4.97;;;;;;;;;;4821010;29;20057;-73
2022/05/23 06:27:12;;;;;;;7.35;5.75;;;;;;;;;;4821124;29;20066;-72
2022/05/23 06:30:00;;;;;;;13.27;5.50;;;;;;;;;;4842785;29;20065;-73
2022/05/23 06:32:45;;;;;;;8.60;5.95;;;;;;;;;;4821161;29;20062;-72
2022/05/23 06:35:21;;;;;;;11.68;5.30;;;;;;;;;;4820809;29;20538;-72
2022/05/23 06:37:53;;;;;;;5.95;5.13;;;;;;;;;;4821142;29;21193;-72
2022/05/23 06:40:46;;;;;;;5.20;4.68;;;;;;;;;;4836875;29;20749;-72
2022/05/23 06:43:42;;;;;;;7.85;5.72;;;;;;;;;;4828281;29;20073;-73
2022/05/23 06:46:27;;;;;;;10.40;5.65;;;;;;;;;;4842751;29;20065;-73
2022/05/23 06:49:17;;;;;;;16.52;6.60;;;;;;;;;;4837421;29;20515;-72
2022/05/23 06:52:15;;;;;;;27.58;7.03;;;;;;;;;;4815657;29;20061;-73
2022/05/23 06:55:17;;;;;;;30.42;6.68;;;;;;;;;;4837852;29;20389;-73
2022/05/23 06:57:49;;;;;;;37.30;6.28;;;;;;;;;;4820167;29;20061;-73
2022/05/23 07:00:20;;;;;;;16.85;6.05;;;;;;;;;;4820762;29;20066;-73
2022/05/23 07:03:02;;;;;;;44.20;5.97;;;;;;;;;;4819242;29;20065;-73
2022/05/23 07:14:24;;;;;;;17.90;5.53;;;;;;;;;;4820199;29;20054;-72
2022/05/23 07:16:59;;;;;;;12.68;5.00;;;;;;;;;;4820332;29;20426;-73
2022/05/23 07:19:50;;;;;;;15.43;7.30;;;;;;;;;;4827300;29;20062;-73
2022/05/23 07:22:22;;;;;;;25.52;7.03;;;;;;;;;;4819823;29;20069;-72
2022/05/23 07:24:54;;;;;;;21.63;8.38;;;;;;;;;;4820131;29;20058;-73
2022/05/23 07:27:27;;;;;;;10.63;6.60;;;;;;;;;;4805315;29;20054;-73
2022/05/23 07:29:57;;;;;;;21.40;7.32;;;;;;;;;;4836523;29;20058;-72
2022/05/23 07:32:31;;;;;;;12.48;7.22;;;;;;;;;;4820457;29;20069;-73
2022/05/23 07:35:02;;;;;;;13.27;9.23;;;;;;;;;;4820086;29;20053;-73
2022/05/23 07:37:32;;;;;;;21.07;8.90;;;;;;;;;;4820833;29;20058;-73
2022/05/23 07:40:05;;;;;;;36.55;8.13;;;;;;;;;;4819321;29;20068;-72
2022/05/23 07:42:48;;;;;;;18.77;7.70;;;;;;;;;;4820514;29;20062;-72
2022/05/23 07:45:18;;;;;;;26.85;7.85;;;;;;;;;;4819932;29;20052;-73
2022/05/23 07:47:50;;;;;;;20.20;7.00;;;;;;;;;;4820158;29;20787;-72
2022/05/23 07:50:27;;;;;;;33.67;6.20;;;;;;;;;;4819305;29;20053;-73
2022/05/23 08:01:43;;;;;;;46.25;5.72;;;;;;;;;;4820020;29;20054;-73
2022/05/23 08:04:13;;;;;;;51.72;5.85;;;;;;;;;;4819736;29;20057;-72
2022/05/23 08:06:50;;;;;;;12.77;5.18;;;;;;;;;;4836139;29;20046;-72
2022/05/23 08:09:21;;;;;;;26.48;5.78;;;;;;;;;;4819719;29;20224;-73
2022/05/23 08:12:05;;;;;;;13.45;5.30;;;;;;;;;;4818831;29;20089;-72
2022/05/23 08:14:36;;;;;;;21.52;4.60;;;;;;;;;;4818512;29;20068;-72
2022/05/23 08:17:15;;;;;;;12.25;5.47;;;;;;;;;;4805663;29;20068;-72
2022/05/23 08:19:48;;;;;;;26.90;5.70;;;;;;;;;;4818262;29;20491;-73
2022/05/23 08:22:24;;;;;;;25.63;5.30;;;;;;;;;;4819415;29;20054;-72
2022/05/23 08:25:12;;;;;;;7.93;5.05;;;;;;;;;;4819508;29;20431;-72
2022/05/23 08:27:55;;;;;;;18.23;5.18;;;;;;;;;;4834031;29;20058;-73
2022/05/23 08:30:27;;;;;;;25.27;4.50;;;;;;;;;;4819415;29;20050;-71
2022/05/23 08:33:20;;;;;;;7.85;4.72;;;;;;;;;;4826168;29;20058;-73
2022/05/23 08:35:55;;;;;;;10.93;3.70;;;;;;;;;;4819055;29;20518;-73
2022/05/23 08:38:26;;;;;;;11.63;3.93;;;;;;;;;;4819474;29;20379;-73
2022/05/23 08:41:16;;;;;;;9.23;4.75;;;;;;;;;;4819583;29;20058;-72
2022/05/23 08:44:20;;;;;;;5.35;4.40;;;;;;;;;;4818704;29;20059;-72
2022/05/23 08:47:29;;;;;;;24.67;6.15;;;;;;;;;;4835336;29;20384;-72
2022/05/23 08:50:59;;;;;;;8.00;4.97;;;;;;;;;;4811486;29;20058;-73
2022/05/23 08:54:21;;;;;;;5.22;4.72;;;;;;;;;;4761098;30;20063;-72
2022/05/23 08:57:36;;;;;;;15.63;6.40;;;;;;;;;;4758961;29;20085;-72
2022/05/23 09:00:14;;;;;;;7.68;6.25;;;;;;;;;;4818729;29;20053;-72
2022/05/23 09:02:59;;;;;;;6.97;5.70;;;;;;;;;;4819298;29;20050;-72
2022/05/23 09:05:41;;;;;;;5.90;5.18;;;;;;;;;;4819133;29;20058;-73
2022/05/23 09:08:37;;;;;;;6.28;3.78;;;;;;;;;;4835557;29;20437;-72
2022/05/23 09:11:13;;;;;;;50.42;5.18;;;;;;;;;;4836074;29;20050;-73
2022/05/23 09:13:47;;;;;;;6.75;4.15;;;;;;;;;;4835735;29;20053;-73
2022/05/23 09:16:17;;;;;;;128.05;6.38;;;;;;;;;;4835225;29;20061;-72
2022/05/23 09:19:04;;;;;;;29.80;4.28;;;;;;;;;;4834950;29;20065;-72
2022/05/23 09:24:22;;;;;;;8.45;3.67;;;;;;;;;;4818499;29;20050;-73
2022/05/23 09:26:59;;;;;;;4.97;4.00;;;;;;;;;;4836725;29;20065;-73
2022/05/23 09:29:29;;;;;;;6.30;4.50;;;;;;;;;;4839475;29;20053;-73
2022/05/23 09:32:10;;;;;;;5.82;4.47;;;;;;;;;;4838744;29;20410;-73
2022/05/23 09:34:54;;;;;;;6.05;3.70;;;;;;;;;;4838452;29;20050;-73
2022/05/23 09:37:42;;;;;;;7.07;3.90;;;;;;;;;;4838886;29;20494;-72
2022/05/23 09:40:26;;;;;;;5.35;3.92;;;;;;;;;;4839243;29;20054;-72
2022/05/23 09:49:09;;;;;;;4.05;3.03;;;;;;;;;;4838183;29;20540;-72
2022/05/23 09:52:00;;;;;;;4.22;3.22;;;;;;;;;;4837761;29;20862;-73
2022/05/23 09:54:46;;;;;;;6.15;4.47;;;;;;;;;;4820843;29;20065;-74
2022/05/23 09:57:45;;;;;;;7.97;4.30;;;;;;;;;;4838392;29;20457;-73
2022/05/23 10:00:20;;;;;;;9.07;4.07;;;;;;;;;;4818342;29;20065;-72
2022/05/23 10:02:59;;;;;;;8.55;3.40;;;;;;;;;;4820238;29;20046;-74
2022/05/23 10:05:33;;;;;;;9.75;3.88;;;;;;;;;;4819706;29;20518;-72
2022/05/23 10:08:29;;;;;;;3.85;3.33;;;;;;;;;;4818714;29;20062;-72
2022/05/23 10:11:05;;;;;;;4.30;3.20;;;;;;;;;;4820213;29;20050;-73
2022/05/23 10:13:38;;;;;;;3.38;3.00;;;;;;;;;;4802546;29;20058;-76
2022/05/23 10:16:47;;;;;;;10.07;3.40;;;;;;;;;;4819397;29;20050;-73
2022/05/23 10:19:44;;;;;;;7.13;3.10;;;;;;;;;;4804564;29;20062;-72
2022/05/23 10:22:24;;;;;;;9.50;3.30;;;;;;;;;;4817219;29;20559;-73
2022/05/23 10:25:05;;;;;;;4.05;2.95;;;;;;;;;;4818764;29;20057;-74
2022/05/23 10:28:22;;;;;;;20.73;5.28;;;;;;;;;;4819433;29;20050;-73
2022/05/23 10:31:07;;;;;;;16.55;5.35;;;;;;;;;;4819233;29;20042;-73
2022/05/23 10:33:40;;;;;;;7.57;4.45;;;;;;;;;;4819873;29;20061;-72
2022/05/23 10:36:21;;;;;;;9.15;4.10;;;;;;;;;;4801779;29;20058;-73
2022/05/23 10:42:13;;;;;;;7.68;3.83;;;;;;;;;;4818867;29;20061;-75
2022/05/23 10:45:02;;;;;;;9.15;3.55;;;;;;;;;;4819190;29;20059;-72
2022/05/23 10:47:56;;;;;;;14.45;3.22;;;;;;;;;;4818785;29;20057;-76
2022/05/23 10:50:36;;;;;;;8.13;3.10;;;;;;;;;;4802245;29;20545;-72
2022/05/23 10:53:09;;;;;;;18.27;3.40;;;;;;;;;;4819633;29;20055;-75
2022/05/23 10:56:00;;;;;;;8.55;2.70;;;;;;;;;;4818743;29;20054;-72
2022/05/23 10:58:42;;;;;;;12.82;3.45;;;;;;;;;;4808303;29;20061;-76
2022/05/23 11:01:42;;;;;;;6.03;2.22;;;;;;;;;;4837420;29;20062;-73
2022/05/23 11:04:45;;;;;;;3.72;1.70;;;;;;;;;;4838075;29;20061;-73
2022/05/23 11:07:54;;;;;;;5.03;2.30;;;;;;;;;;4837549;29;20050;-71
2022/05/23 11:10:38;;;;;;;2.35;1.80;;;;;;;;;;4836647;29;20046;-76
2022/05/23 11:13:11;;;;;;;5.90;2.58;;;;;;;;;;4837319;29;20050;-74
2022/05/23 11:15:44;;;;;;;21.92;5.43;;;;;;;;;;4837038;29;20054;-77
2022/05/23 11:18:45;;;;;;;17.08;6.88;;;;;;;;;;4838006;29;20050;-73
2022/05/23 11:21:36;;;;;;;8.93;3.83;;;;;;;;;;4836073;29;20053;-69
2022/05/23 11:24:18;;;;;;;5.45;2.10;;;;;;;;;;4837276;29;20061;-72
2022/05/23 11:33:41;;;;;;;;;;;;;;;;;;4836916;29;20053;-72
2022/05/23 11:35:33;;;;;;;12.38;2.72;;;;;;;;;;4819540;29;20065;-73
2022/05/23 11:38:03;;;;;;;3.30;1.90;;;;;;;;;;4836694;29;20491;-73
2022/05/23 11:40:39;;;;;;;14.27;3.30;;;;;;;;;;4837054;29;20058;-72
2022/05/23 11:43:15;;;;;;;5.18;1.80;;;;;;;;;;4836217;29;20042;-73
2022/05/23 11:46:00;;;;;;;14.55;2.65;;;;;;;;;;4836222;29;20410;-72
2022/05/23 11:48:39;;;;;;;12.82;2.20;;;;;;;;;;4836433;29;20046;-72
2022/05/23 11:51:17;;;;;;;2.92;1.90;;;;;;;;;;4818824;29;20058;-76
2022/05/23 11:54:32;;;;;;;2.85;1.60;;;;;;;;;;4836601;29;20942;-74
2022/05/23 11:57:04;;;;;;;11.07;2.33;;;;;;;;;;4836232;29;20076;-72
2022/05/23 11:59:34;;;;;;;8.30;2.20;;;;;;;;;;4836041;29;20565;-73
2022/05/23 12:02:07;;;;;;;23.33;3.40;;;;;;;;;;4835816;29;20642;-72
2022/05/23 12:04:51;;;;;;;1.58;1.30;;;;;;;;;;4836266;29;20057;-73
2022/05/23 12:07:57;;;;;;;2.33;1.73;;;;;;;;;;4836247;29;20411;-73
2022/05/23 12:10:30;;;;;;;12.27;2.42;;;;;;;;;;4814684;29;20069;-73
2022/05/23 12:13:31;;;;;;;16.05;2.03;;;;;;;;;;4835709;29;20066;-77
2022/05/23 12:16:22;;;;;;;15.70;2.27;;;;;;;;;;4835616;29;20046;-72
2022/05/23 12:19:24;;;;;;;13.07;1.90;;;;;;;;;;4835727;29;20054;-74
2022/05/23 12:22:16;;;;;;;5.97;2.78;;;;;;;;;;4836021;29;20049;-73
2022/05/23 12:24:59;;;;;;;9.25;2.17;;;;;;;;;;4835441;29;20064;-74
2022/05/23 12:27:34;;;;;;;3.13;1.60;;;;;;;;;;4835479;29;20045;-73
2022/05/23 12:30:20;;;;;;;26.50;4.43;;;;;;;;;;4819069;29;20076;-72
2022/05/23 12:33:00;;;;;;;12.75;2.20;;;;;;;;;;4835722;29;20056;-77
2022/05/23 12:35:44;;;;;;;6.65;1.60;;;;;;;;;;4834904;29;20050;-72
2022/05/23 12:38:28;;;;;;;1.73;1.63;;;;;;;;;;4835176;29;20049;-74
2022/05/23 12:41:08;;;;;;;6.68;1.88;;;;;;;;;;4835491;29;20046;-74
2022/05/23 12:44:00;;;;;;;16.77;2.25;;;;;;;;;;4819767;29;20061;-73
2022/05/23 12:47:04;;;;;;;6.07;2.00;;;;;;;;;;4834040;29;20050;-73
2022/05/23 12:50:12;;;;;;;6.85;1.83;;;;;;;;;;4835353;29;20061;-73
2022/05/23 12:52:49;;;;;;;5.47;1.80;;;;;;;;;;4833723;29;20068;-76
2022/05/23 12:55:39;;;;;;;7.60;1.90;;;;;;;;;;4836036;29;20066;-75
2022/05/23 12:58:38;;;;;;;4.65;1.60;;;;;;;;;;4815929;29;20046;-72
2022/05/23 13:01:13;;;;;;;4.75;1.60;;;;;;;;;;4816125;29;20430;-72
2022/05/23 13:04:10;;;;;;;14.77;3.13;;;;;;;;;;4816898;29;20057;-73
2022/05/23 13:06:40;;;;;;;;;;;;;;;;;;4816593;29;20426;-73
2022/05/23 13:09:16;;;;;;;4.07;1.83;;;;;;;;;;4816717;29;19936;-72
2022/05/23 13:11:51;;;;;;;2.58;1.70;;;;;;;;;;4817033;29;20141;-74
2022/05/23 13:14:22;;;;;;;25.17;3.35;;;;;;;;;;4817169;29;20053;-73
2022/05/23 13:16:58;;;;;;;2.45;1.70;;;;;;;;;;4816811;29;20054;-77
2022/05/23 13:22:30;;;;;;;4.30;1.70;;;;;;;;;;4787069;29;20057;-73
2022/05/23 13:25:01;;;;;;;17.35;2.58;;;;;;;;;;4817043;29;20054;-73
2022/05/23 13:27:48;;;;;;;4.80;1.80;;;;;;;;;;4817271;29;20042;-75
2022/05/23 13:30:20;;;;;;;2.50;1.70;;;;;;;;;;4816692;29;20602;-73
2022/05/23 13:33:14;;;;;;;2.22;1.45;;;;;;;;;;4817493;29;20051;-73
2022/05/23 13:35:46;;;;;;;1.95;1.52;;;;;;;;;;4816155;29;20388;-73
2022/05/23 13:38:25;;;;;;;2.30;1.67;;;;;;;;;;4816120;29;20066;-74
2022/05/23 13:41:00;;;;;;;12.85;2.22;;;;;;;;;;4817539;29;20503;-74
2022/05/23 13:43:43;;;;;;;8.48;1.90;;;;;;;;;;4816912;29;20047;-74
2022/05/23 13:46:19;;;;;;;3.80;1.90;;;;;;;;;;4817269;29;20057;-73
2022/05/23 13:49:18;;;;;;;10.45;2.90;;;;;;;;;;4815432;29;20054;-73
2022/05/23 13:52:02;;;;;;;4.40;1.50;;;;;;;;;;4817183;29;20379;-75
2022/05/23 13:54:51;;;;;;;3.80;1.92;;;;;;;;;;4816320;29;20046;-73
2022/05/23 13:57:31;;;;;;;10.75;2.03;;;;;;;;;;4816133;29;20510;-73
2022/05/23 14:00:14;;;;;;;13.73;2.58;;;;;;;;;;4834980;29;20054;-73
2022/05/23 14:03:12;;;;;;;5.55;2.05;;;;;;;;;;4834842;29;20053;-73
2022/05/23 14:05:45;;;;;;;5.28;2.28;;;;;;;;;;4833577;29;20070;-73
2022/05/23 14:08:24;;;;;;;8.05;1.90;;;;;;;;;;4835327;29;20049;-74
2022/05/23 14:10:54;;;;;;;4.90;1.70;;;;;;;;;;4833936;29;20050;-75
2022/05/23 14:13:32;;;;;;;3.13;1.88;;;;;;;;;;4836965;29;20060;-73
2022/05/23 14:16:05;;;;;;;3.30;1.80;;;;;;;;;;4837812;29;20046;-75
2022/05/23 14:18:35;;;;;;;13.30;3.40;;;;;;;;;;4838059;29;20398;-73
2022/05/23 14:21:05;;;;;;;3.90;2.00;;;;;;;;;;4837899;29;20053;-75
2022/05/23 14:23:35;;;;;;;8.85;2.22;;;;;;;;;;4837735;29;20057;-74
2022/05/23 14:26:09;;;;;;;3.13;1.97;;;;;;;;;;4837515;29;20417;-73
2022/05/23 14:28:45;;;;;;;9.20;2.75;;;;;;;;;;4837625;29;20049;-74
2022/05/23 14:31:36;;;;;;;3.88;2.00;;;;;;;;;;4838294;29;20042;-73
2022/05/23 14:34:09;;;;;;;5.80;2.20;;;;;;;;;;4837592;29;20608;-74
2022/05/23 14:36:39;;;;;;;7.40;2.20;;;;;;;;;;4837773;29;20042;-73
2022/05/23 14:39:22;;;;;;;6.73;3.00;;;;;;;;;;4837076;29;20050;-73
2022/05/23 14:41:53;;;;;;;8.43;2.90;;;;;;;;;;4837705;29;20049;-73
2022/05/23 14:44:32;;;;;;;5.30;2.20;;;;;;;;;;4837037;29;20930;-74
2022/05/23 14:47:17;;;;;;;5.78;2.15;;;;;;;;;;4837638;29;20597;-74
2022/05/23 14:50:03;;;;;;;3.55;2.17;;;;;;;;;;4837863;29;20065;-73
2022/05/23 14:55:52;;;;;;;6.45;2.35;;;;;;;;;;4837460;29;20109;-74
2022/05/23 15:01:23;;;;;;;3.05;2.25;;;;;;;;;;4838041;29;20511;-74
2022/05/23 15:03:55;;;;;;;6.45;2.15;;;;;;;;;;4837129;29;20054;-73
2022/05/23 15:06:26;;;;;;;4.85;2.03;;;;;;;;;;4837194;29;20070;-75
2022/05/23 15:08:59;;;;;;;23.95;4.07;;;;;;;;;;4820809;29;20050;-73
2022/05/23 15:11:34;;;;;;;5.10;2.25;;;;;;;;;;4837029;29;20605;-80
2022/05/23 15:14:05;;;;;;;10.27;2.30;;;;;;;;;;4819382;29;20069;-74
2022/05/23 15:16:37;;;;;;;4.93;1.90;;;;;;;;;;4836140;29;20054;-73
2022/05/23 15:19:14;;;;;;;5.80;2.17;;;;;;;;;;4836870;29;20518;-75
2022/05/23 15:21:47;;;;;;;4.53;2.40;;;;;;;;;;4834478;29;20058;-74
2022/05/23 15:24:17;;;;;;;5.90;2.30;;;;;;;;;;4832883;29;20072;-74
2022/05/23 15:26:47;;;;;;;2.63;1.93;;;;;;;;;;4832697;29;20049;-74
2022/05/23 15:29:18;;;;;;;5.88;2.03;;;;;;;;;;4835462;29;20081;-73
2022/05/23 15:31:52;;;;;;;7.00;2.58;;;;;;;;;;4836587;29;20065;-75
2022/05/23 15:34:23;;;;;;;6.80;2.35;;;;;;;;;;4820162;29;20426;-73
2022/05/23 15:36:53;;;;;;;;;;;;;;;;;;4837183;29;20068;-72
2022/05/23 15:39:23;;;;;;;10.35;2.42;;;;;;;;;;4836116;29;19951;-73
2022/05/23 15:41:55;;;;;;;5.28;2.20;;;;;;;;;;4837195;29;20042;-75
2022/05/23 15:44:36;;;;;;;4.55;2.30;;;;;;;;;;4835306;29;20050;-73
2022/05/23 15:47:09;;;;;;;4.13;2.20;;;;;;;;;;4836627;29;20045;-74
2022/05/23 15:49:39;;;;;;;5.63;2.10;;;;;;;;;;4835683;29;20065;-73
2022/05/23 15:52:09;;;;;;;3.08;2.17;;;;;;;;;;4837002;29;20049;-74
2022/05/23 15:54:45;;;;;;;4.20;2.35;;;;;;;;;;4836249;29;20057;-74
2022/05/23 15:57:26;;;;;;;6.47;2.10;;;;;;;;;;4819237;29;20446;-74
2022/05/23 16:00:00;;;;;;;4.88;2.45;;;;;;;;;;4835729;29;20592;-73
2022/05/23 16:02:42;;;;;;;6.13;2.42;;;;;;;;;;4840848;29;20061;-73
2022/05/23 16:05:13;;;;;;;3.67;2.20;;;;;;;;;;4836034;29;20065;-73
2022/05/23 16:07:44;;;;;;;5.00;2.30;;;;;;;;;;4818985;29;20062;-73
2022/05/23 16:10:15;;;;;;;5.60;2.38;;;;;;;;;;4836004;29;20054;-74
2022/05/23 16:12:59;;;;;;;5.72;2.92;;;;;;;;;;4835557;29;20065;-73
2022/05/23 16:15:30;;;;;;;7.43;2.15;;;;;;;;;;4835588;29;20054;-72
2022/05/23 16:18:02;;;;;;;11.77;2.95;;;;;;;;;;4836073;29;20054;-72
2022/05/23 16:20:34;;;;;;;6.78;2.30;;;;;;;;;;4835012;29;20402;-72
2022/05/23 16:23:08;;;;;;;11.37;2.50;;;;;;;;;;4835421;29;20061;-73
2022/05/23 16:25:43;;;;;;;17.45;5.03;;;;;;;;;;4836138;29;20053;-73
2022/05/23 16:28:14;;;;;;;8.43;2.72;;;;;;;;;;4836010;29;20072;-72
2022/05/23 16:30:46;;;;;;;11.10;2.55;;;;;;;;;;4835768;29;20061;-75
2022/05/23 16:39:01;;;;;;;5.35;2.50;;;;;;;;;;4836948;29;20064;-72
2022/05/23 16:41:31;;;;;;;4.47;2.33;;;;;;;;;;4836068;29;20062;-72
2022/05/23 16:44:01;;;;;;;3.17;2.23;;;;;;;;;;4819282;29;20060;-72
2022/05/23 16:46:31;;;;;;;6.78;2.90;;;;;;;;;;4836523;29;20325;-74
2022/05/23 16:49:01;;;;;;;10.63;3.15;;;;;;;;;;4835462;29;20054;-73
2022/05/23 16:51:32;;;;;;;3.58;2.33;;;;;;;;;;4835224;29;20061;-74
2022/05/23 16:54:06;;;;;;;5.32;2.70;;;;;;;;;;4833854;29;20054;-72
2022/05/23 16:56:38;;;;;;;5.28;2.05;;;;;;;;;;4835561;29;20063;-71
2022/05/23 16:59:07;;;;;;;2.97;2.47;;;;;;;;;;4816159;29;20066;-73
2022/05/23 17:01:38;;;;;;;15.53;5.27;;;;;;;;;;4817360;29;20069;-73
2022/05/23 17:04:09;;;;;;;4.95;2.70;;;;;;;;;;4818215;29;20054;-73